createdAt,value
2019-04-14T00:01:02.109Z,1024.4
2019-04-14T00:06:00.547Z,1024.4
2019-04-14T00:11:01.713Z,1024.4
2019-04-14T00:16:00.929Z,1024.3
2019-04-14T00:21:00.346Z,1024.3
2019-04-14T00:26:00.893Z,1024.3
2019-04-14T00:31:00.242Z,1024.3
2019-04-14T00:36:00.504Z,1024.2
2019-04-14T00:41:00.897Z,1024.2
2019-04-14T00:46:01.356Z,1024.2
2019-04-14T00:51:00.823Z,1024.2
2019-04-14T00:56:01.982Z,1024.3
2019-04-14T01:01:00.513Z,1024.3
2019-04-14T01:06:01.134Z,1024.3
2019-04-14T01:11:00.994Z,1024.3
2019-04-14T01:16:09.007Z,1024.3
2019-04-14T01:21:00.423Z,1024.3
2019-04-14T01:26:00.935Z,1024.3
2019-04-14T01:31:01.177Z,1024.3
2019-04-14T01:36:01.761Z,1024.3
2019-04-14T01:41:00.236Z,1024.3
2019-04-14T01:46:09.637Z,1024.3
2019-04-14T01:51:00.586Z,1024.3
2019-04-14T01:56:01.321Z,1024.3
2019-04-14T02:01:01.919Z,1024.3
2019-04-14T02:06:00.655Z,1024.3
2019-04-14T02:11:01.028Z,1024.3
2019-04-14T02:16:12.798Z,1024.3
2019-04-14T02:21:02.041Z,1024.3
2019-04-14T02:26:00.613Z,1024.3
2019-04-14T02:31:12.949Z,1024.3
2019-04-14T02:36:30.576Z,1024.3
2019-04-14T02:46:32.019Z,1024.1
2019-04-14T02:51:27.005Z,1024.1
2019-04-14T02:56:22.277Z,1024.1
2019-04-14T03:06:26.105Z,1024.2
2019-04-14T03:11:21.160Z,1024.2
2019-04-14T03:16:35.611Z,1024.3
2019-04-14T03:26:26.653Z,1024.3
2019-04-14T03:31:52.473Z,1024.3
2019-04-14T03:41:30.099Z,1024.2
2019-04-14T03:46:39.738Z,1024.3
2019-04-14T03:56:05.809Z,1024.3
2019-04-14T04:01:01.798Z,1024.3
2019-04-14T04:06:00.903Z,1024.3
2019-04-14T04:11:02.011Z,1024.3
2019-04-14T04:16:00.529Z,1024.3
2019-04-14T04:21:01.075Z,1024.3
2019-04-14T04:26:01.748Z,1024.3
2019-04-14T04:31:00.505Z,1024.3
2019-04-14T04:36:01.062Z,1024.5
2019-04-14T04:41:01.586Z,1024.5
2019-04-14T04:46:01.075Z,1024.5
2019-04-14T04:51:01.172Z,1024.5
2019-04-14T04:56:01.508Z,1024.5
2019-04-14T05:01:01.447Z,1024.5
2019-04-14T05:06:02.589Z,1024.6
2019-04-14T05:11:01.150Z,1024.6
2019-04-14T05:16:00.645Z,1024.7
2019-04-14T05:21:01.794Z,1024.7
2019-04-14T05:26:01.163Z,1024.7
2019-04-14T05:31:01.322Z,1024.7
2019-04-14T05:36:02.085Z,1024.7
2019-04-14T05:41:00.500Z,1024.7
2019-04-14T05:46:01.355Z,1024.7
2019-04-14T05:51:00.584Z,1024.7
2019-04-14T05:56:01.493Z,1024.7
2019-04-14T06:01:00.919Z,1024.7
2019-04-14T06:06:00.540Z,1024.9
2019-04-14T06:11:00.487Z,1024.9
2019-04-14T06:16:03.061Z,1024.9
2019-04-14T06:21:00.450Z,1024.9
2019-04-14T06:26:01.011Z,1024.9
2019-04-14T06:31:01.320Z,1024.9
2019-04-14T06:36:01.304Z,1024.9
2019-04-14T06:41:00.894Z,1024.9
2019-04-14T06:46:01.221Z,1024.9
2019-04-14T06:51:00.666Z,1024.9
2019-04-14T06:56:01.063Z,1024.9
2019-04-14T07:01:00.501Z,1024.9
2019-04-14T07:06:00.934Z,1025.1
2019-04-14T07:11:00.876Z,1025.1
2019-04-14T07:16:01.267Z,1025.2
2019-04-14T07:21:00.658Z,1025.2
2019-04-14T07:26:01.429Z,1025.2
2019-04-14T07:31:00.526Z,1025.2
2019-04-14T07:36:01.257Z,1025.2
2019-04-14T07:41:00.760Z,1025.2
2019-04-14T07:46:01.167Z,1025.2
2019-04-14T07:51:00.669Z,1025.2
2019-04-14T07:56:01.267Z,1025.2
2019-04-14T08:01:00.578Z,1025.2
2019-04-14T08:06:01.158Z,1025.3
2019-04-14T08:11:00.724Z,1025.3
2019-04-14T08:16:01.036Z,1025.3
2019-04-14T08:21:01.401Z,1025.3
2019-04-14T08:26:00.733Z,1025.3
2019-04-14T08:31:01.171Z,1025.3
2019-04-14T08:36:00.629Z,1025.2
2019-04-14T08:41:01.269Z,1025.2
2019-04-14T08:46:00.742Z,1025.2
2019-04-14T08:51:01.286Z,1025.2
2019-04-14T08:56:00.851Z,1025.2
2019-04-14T09:01:01.496Z,1025.2
2019-04-14T09:06:01.067Z,1025.2
2019-04-14T09:11:01.067Z,1025.2
2019-04-14T09:16:00.622Z,1025.3
2019-04-14T09:21:00.670Z,1025.3
2019-04-14T09:26:01.205Z,1025.2
2019-04-14T09:31:00.798Z,1025.2
2019-04-14T09:36:01.454Z,1025.2
2019-04-14T09:41:01.237Z,1025.2
2019-04-14T09:46:01.028Z,1025.3
2019-04-14T09:51:05.010Z,1025.3
2019-04-14T09:56:00.787Z,1025.4
2019-04-14T10:01:01.389Z,1025.4
2019-04-14T10:06:00.879Z,1025.6
2019-04-14T10:11:01.087Z,1025.6
2019-04-14T10:16:00.819Z,1025.7
2019-04-14T10:21:01.215Z,1025.7
2019-04-14T10:26:00.796Z,1025.7
2019-04-14T10:31:01.387Z,1025.7
2019-04-14T10:36:01.095Z,1025.7
2019-04-14T10:41:00.922Z,1025.7
2019-04-14T10:46:01.400Z,1025.6
2019-04-14T10:51:01.433Z,1025.6
2019-04-14T10:56:00.940Z,1025.6
2019-04-14T11:01:01.414Z,1025.6
2019-04-14T11:06:01.070Z,1025.6
2019-04-14T11:11:01.135Z,1025.6
2019-04-14T11:16:01.579Z,1025.7
2019-04-14T11:21:01.461Z,1025.7
2019-04-14T11:26:00.893Z,1025.7
2019-04-14T11:31:00.976Z,1025.7
2019-04-14T11:36:01.150Z,1025.7
2019-04-14T11:41:00.807Z,1025.7
2019-04-14T11:46:03.393Z,1025.7
2019-04-14T11:51:01.611Z,1025.7
2019-04-14T11:56:01.231Z,1025.7
2019-04-14T12:01:01.857Z,1025.7
2019-04-14T12:06:01.539Z,1025.7
2019-04-14T12:11:01.360Z,1025.7
2019-04-14T12:16:02.657Z,1025.6
2019-04-14T12:21:01.511Z,1025.6
2019-04-14T12:26:05.434Z,1025.6
2019-04-14T12:31:01.986Z,1025.6
2019-04-14T12:36:01.780Z,1025.7
2019-04-14T12:41:02.565Z,1025.7
2019-04-14T12:46:01.612Z,1025.7
2019-04-14T12:51:01.125Z,1025.7
2019-04-14T12:56:01.547Z,1025.7
2019-04-14T13:01:01.088Z,1025.7
2019-04-14T13:06:01.594Z,1025.7
2019-04-14T13:11:01.232Z,1025.7
2019-04-14T13:16:01.414Z,1025.6
2019-04-14T13:21:00.943Z,1025.6
2019-04-14T13:26:00.887Z,1025.6
2019-04-14T13:31:01.343Z,1025.6
2019-04-14T13:36:01.893Z,1025.6
2019-04-14T13:41:01.612Z,1025.6
2019-04-14T13:46:01.177Z,1025.6
2019-04-14T13:51:01.812Z,1025.6
2019-04-14T13:56:01.477Z,1025.6
2019-04-14T14:01:01.038Z,1025.6
2019-04-14T14:06:01.586Z,1025.6
2019-04-14T14:11:01.428Z,1025.6
2019-04-14T14:16:01.620Z,1025.6
2019-04-14T14:21:01.224Z,1025.6
2019-04-14T14:26:01.676Z,1025.6
2019-04-14T14:31:01.091Z,1025.6
2019-04-14T14:36:01.519Z,1025.5
2019-04-14T14:41:01.098Z,1025.5
2019-04-14T14:46:01.190Z,1025.5
2019-04-14T14:51:01.857Z,1025.5
2019-04-14T14:56:01.258Z,1025.5
2019-04-14T15:01:01.780Z,1025.5
2019-04-14T15:06:01.356Z,1025.4
2019-04-14T15:11:04.095Z,1025.4
2019-04-14T15:16:01.147Z,1025.5
2019-04-14T15:21:01.747Z,1025.5
2019-04-14T15:26:01.178Z,1025.6
2019-04-14T15:31:01.702Z,1025.6
2019-04-14T15:36:01.380Z,1025.5
2019-04-14T15:41:01.892Z,1025.5
2019-04-14T15:46:01.724Z,1025.5
2019-04-14T15:51:01.226Z,1025.5
2019-04-14T15:56:01.785Z,1025.5
2019-04-14T16:01:01.280Z,1025.5
2019-04-14T16:06:01.747Z,1025.6
2019-04-14T16:11:01.964Z,1025.6
2019-04-14T16:16:01.558Z,1025.6
2019-04-14T16:21:01.594Z,1025.6
2019-04-14T16:26:01.186Z,1025.6
2019-04-14T16:31:01.685Z,1025.6
2019-04-14T16:36:02.152Z,1025.6
2019-04-14T16:41:01.866Z,1025.6
2019-04-14T16:46:01.343Z,1025.6
2019-04-14T16:51:02.027Z,1025.6
2019-04-14T16:56:02.069Z,1025.6
2019-04-14T17:01:01.897Z,1025.6
2019-04-14T17:06:01.495Z,1025.7
2019-04-14T17:11:01.359Z,1025.7
2019-04-14T17:16:01.652Z,1025.7
2019-04-14T17:21:02.120Z,1025.7
2019-04-14T17:26:01.800Z,1025.7
2019-04-14T17:31:01.283Z,1025.7
2019-04-14T17:36:01.940Z,1025.8
2019-04-14T17:41:01.660Z,1025.8
2019-04-14T17:46:01.612Z,1025.8
2019-04-14T17:51:03.421Z,1025.8
2019-04-14T17:56:02.050Z,1025.9
2019-04-14T18:01:01.636Z,1025.9
2019-04-14T18:06:02.164Z,1026.1
2019-04-14T18:11:01.368Z,1026.1
2019-04-14T18:16:01.304Z,1026.2
2019-04-14T18:21:01.946Z,1026.2
2019-04-14T18:26:01.385Z,1026.2
2019-04-14T18:31:02.003Z,1026.2
2019-04-14T18:36:01.652Z,1026.4
2019-04-14T18:41:02.120Z,1026.4
2019-04-14T18:46:01.538Z,1026.5
2019-04-14T18:51:02.067Z,1026.5
2019-04-14T18:56:01.466Z,1026.7
2019-04-14T19:01:01.306Z,1026.7
2019-04-14T19:06:01.938Z,1026.7
2019-04-14T19:11:01.788Z,1026.7
2019-04-14T19:16:01.960Z,1026.8
2019-04-14T19:21:01.563Z,1026.8
2019-04-14T19:26:02.003Z,1026.9
2019-04-14T19:31:02.027Z,1026.9
2019-04-14T19:36:01.743Z,1027.1
2019-04-14T19:41:01.305Z,1027.1
2019-04-14T19:46:01.680Z,1027.1
2019-04-14T19:51:02.288Z,1027.1
2019-04-14T19:56:01.851Z,1027.2
2019-04-14T20:01:02.195Z,1027.2
2019-04-14T20:06:01.571Z,1027.3
2019-04-14T20:11:02.225Z,1027.3
2019-04-14T20:16:02.149Z,1027.3
2019-04-14T20:21:01.955Z,1027.3
2019-04-14T20:26:01.384Z,1027.3
2019-04-14T20:31:01.847Z,1027.3
2019-04-14T20:36:01.474Z,1027.3
2019-04-14T20:41:02.087Z,1027.3
2019-04-14T20:46:01.489Z,1027.3
2019-04-14T20:51:02.126Z,1027.3
2019-04-14T20:56:01.874Z,1027.3
2019-04-14T21:01:01.685Z,1027.3
2019-04-14T21:06:02.100Z,1027.4
2019-04-14T21:11:02.001Z,1027.4
2019-04-14T21:16:12.066Z,1027.4
2019-04-14T21:21:02.198Z,1027.4
2019-04-14T21:26:01.522Z,1027.4
2019-04-14T21:31:02.109Z,1027.4
2019-04-14T21:36:01.711Z,1027.5
2019-04-14T21:41:02.148Z,1027.5
2019-04-14T21:46:02.022Z,1027.6
2019-04-14T21:51:01.884Z,1027.6
2019-04-14T21:56:12.754Z,1027.6
2019-04-14T22:01:01.579Z,1027.6
2019-04-14T22:06:01.589Z,1027.8
2019-04-14T22:11:01.993Z,1027.8
2019-04-14T22:16:02.125Z,1027.8
2019-04-14T22:21:02.304Z,1027.8
2019-04-14T22:26:02.028Z,1027.8
2019-04-14T22:31:01.612Z,1027.8
2019-04-14T22:36:02.276Z,1028
2019-04-14T22:41:01.905Z,1028
2019-04-14T22:46:02.418Z,1028.1
2019-04-14T22:51:02.159Z,1028.1
2019-04-14T22:56:01.827Z,1028.2
2019-04-14T23:01:02.549Z,1028.2
2019-04-14T23:06:02.282Z,1028.3
2019-04-14T23:11:02.444Z,1028.3
2019-04-14T23:16:02.159Z,1028.3
2019-04-14T23:21:01.920Z,1028.3
2019-04-14T23:26:02.531Z,1028.3
2019-04-14T23:31:02.131Z,1028.3
2019-04-14T23:36:02.051Z,1028.3
2019-04-14T23:41:01.766Z,1028.3
2019-04-14T23:46:02.280Z,1028.3
2019-04-14T23:51:01.773Z,1028.3
2019-04-14T23:56:02.222Z,1028.3
